createdAt,value
2022-11-30T00:00:40.783Z,91697.00
2022-11-30T00:03:08.481Z,91693.47
2022-11-30T00:05:35.086Z,91695.53
2022-11-30T00:08:01.674Z,91687.78
2022-11-30T00:10:28.146Z,91692.66
2022-11-30T00:12:54.624Z,91681.47
2022-11-30T00:15:21.120Z,91686.22
2022-11-30T00:17:47.839Z,91688.16
2022-11-30T00:20:15.750Z,91683.94
2022-11-30T00:22:42.970Z,91681.13
2022-11-30T00:25:09.949Z,91681.75
2022-11-30T00:27:36.478Z,91683.00
2022-11-30T00:30:03.422Z,91676.66
2022-11-30T00:32:29.923Z,91682.25
2022-11-30T00:34:56.437Z,91680.78
2022-11-30T00:37:23.151Z,91679.97
2022-11-30T00:39:49.612Z,91680.59
2022-11-30T00:42:16.355Z,91684.72
2022-11-30T00:44:42.811Z,91685.97
2022-11-30T00:47:09.284Z,91688.63
2022-11-30T00:49:35.756Z,91686.47
2022-11-30T00:52:02.547Z,91694.13
2022-11-30T00:54:29.018Z,91695.47
2022-11-30T00:56:55.552Z,91691.31
2022-11-30T00:59:22.013Z,91700.94
2022-11-30T01:01:48.550Z,91691.81
2022-11-30T01:04:15.047Z,91691.81
2022-11-30T01:06:41.497Z,91695.97
2022-11-30T01:09:08.111Z,91695.13
2022-11-30T01:11:34.588Z,91695.13
2022-11-30T01:14:02.290Z,91703.50
2022-11-30T01:16:31.887Z,91699.88
2022-11-30T01:18:58.364Z,91707.44
2022-11-30T01:21:26.674Z,91700.47
2022-11-30T01:23:53.820Z,91695.50
2022-11-30T01:26:20.425Z,91704.50
2022-11-30T01:28:52.153Z,91705.25
2022-11-30T01:31:19.112Z,91708.66
2022-11-30T01:33:50.073Z,91710.00
2022-11-30T01:36:20.838Z,91708.66
2022-11-30T01:38:50.966Z,91712.03
2022-11-30T01:41:23.845Z,91716.19
2022-11-30T01:43:53.368Z,91708.44
2022-11-30T01:46:34.374Z,91711.09
2022-11-30T01:49:15.993Z,91717.94
2022-11-30T01:51:53.513Z,91709.44
2022-11-30T01:54:24.904Z,91717.09
2022-11-30T01:56:55.053Z,91720.59
2022-11-30T01:59:23.925Z,91714.91
2022-11-30T02:01:51.610Z,91720.50
2022-11-30T02:04:26.486Z,91718.19
2022-11-30T02:06:52.985Z,91718.94
2022-11-30T02:09:21.412Z,91718.19
2022-11-30T02:11:48.495Z,91717.47
2022-11-30T02:14:23.418Z,91704.84
2022-11-30T02:17:17.942Z,91710.91
2022-11-30T02:20:15.270Z,91704.59
2022-11-30T02:23:05.988Z,91710.16
2022-11-30T02:25:51.012Z,91706.53
2022-11-30T02:28:36.233Z,91705.81
2022-11-30T02:31:06.663Z,91708.50
2022-11-30T02:33:34.840Z,91711.16
2022-11-30T02:36:03.860Z,91709.13
2022-11-30T02:38:30.899Z,91715.31
2022-11-30T02:40:57.620Z,91711.06
2022-11-30T02:43:28.143Z,91711.06
2022-11-30T02:46:16.298Z,91712.41
2022-11-30T02:48:53.287Z,91705.34
2022-11-30T02:51:24.586Z,91703.91
2022-11-30T02:53:51.250Z,91708.03
2022-11-30T02:56:18.666Z,91707.06
2022-11-30T02:58:45.267Z,91705.59
2022-11-30T03:01:11.832Z,91702.22
2022-11-30T03:03:38.311Z,91702.00
2022-11-30T03:06:04.827Z,91713.16
2022-11-30T03:08:31.263Z,91706.09
2022-11-30T03:11:02.135Z,91710.25
2022-11-30T03:13:30.567Z,91707.34
2022-11-30T03:15:57.088Z,91715.84
2022-11-30T03:18:23.623Z,91712.19
2022-11-30T03:20:50.054Z,91714.97
2022-11-30T03:23:16.514Z,91710.00
2022-11-30T03:25:43.335Z,91719.72
2022-11-30T03:28:10.147Z,91713.41
2022-11-30T03:30:36.583Z,91722.41
2022-11-30T03:33:03.059Z,91716.81
2022-11-30T03:35:29.511Z,91716.81
2022-11-30T03:37:56.003Z,91713.19
2022-11-30T03:40:22.456Z,91727.13
2022-11-30T03:42:48.902Z,91721.56
2022-11-30T03:45:15.430Z,91721.44
2022-11-30T03:47:41.876Z,91723.63
2022-11-30T03:50:08.871Z,91722.16
2022-11-30T03:52:35.391Z,91723.41
2022-11-30T03:55:01.842Z,91720.47
2022-11-30T03:57:28.347Z,91720.34
2022-11-30T03:59:54.840Z,91721.72
2022-11-30T04:02:21.324Z,91724.63
2022-11-30T04:04:48.021Z,91713.22
2022-11-30T04:07:14.626Z,91721.59
2022-11-30T04:09:41.062Z,91717.44
2022-11-30T04:12:07.587Z,91720.03
2022-11-30T04:14:34.050Z,91722.69
2022-11-30T04:17:00.518Z,91723.41
2022-11-30T04:19:26.965Z,91728.28
2022-11-30T04:21:53.430Z,91731.19
2022-11-30T04:24:19.867Z,91726.81
2022-11-30T04:26:46.323Z,91723.91
2022-11-30T04:29:12.771Z,91723.91
2022-11-30T04:31:39.250Z,91717.59
2022-11-30T04:34:05.752Z,91718.31
2022-11-30T04:36:32.347Z,91717.13
2022-11-30T04:38:58.820Z,91723.19
2022-11-30T04:41:25.326Z,91716.13
2022-11-30T04:43:51.766Z,91718.09
2022-11-30T04:46:18.225Z,91727.78
2022-11-30T04:48:44.728Z,91720.03
2022-11-30T04:51:11.198Z,91720.03
2022-11-30T04:53:38.567Z,91730.47
2022-11-30T04:56:06.476Z,91715.19
2022-11-30T04:58:32.955Z,91716.50
2022-11-30T05:00:59.528Z,91727.53
2022-11-30T05:03:26.055Z,91717.59
2022-11-30T05:05:52.503Z,91721.88
2022-11-30T05:08:18.952Z,91721.75
2022-11-30T05:10:48.916Z,91724.41
2022-11-30T05:13:19.295Z,91717.38
2022-11-30T05:15:46.875Z,91727.81
2022-11-30T05:18:15.757Z,91724.16
2022-11-30T05:20:46.335Z,91724.16
2022-11-30T05:23:12.777Z,91725.63
2022-11-30T05:25:39.208Z,91729.63
2022-11-30T05:28:05.643Z,91726.84
2022-11-30T05:30:32.086Z,91728.31
2022-11-30T05:32:58.549Z,91726.13
2022-11-30T05:35:25.134Z,91736.56
2022-11-30T05:37:51.676Z,91735.81
2022-11-30T05:40:18.162Z,91740.66
2022-11-30T05:42:44.594Z,91736.28
2022-11-30T05:45:11.588Z,91737.00
2022-11-30T05:47:38.044Z,91738.94
2022-11-30T05:50:05.307Z,91740.16
2022-11-30T05:52:31.775Z,91737.25
2022-11-30T05:54:59.420Z,91740.16
2022-11-30T05:57:25.876Z,91745.88
2022-11-30T05:59:52.336Z,91745.75
2022-11-30T06:02:21.436Z,91742.94
2022-11-30T06:04:51.643Z,91741.72
2022-11-30T06:07:18.190Z,91740.28
2022-11-30T06:09:44.654Z,91740.16
2022-11-30T06:12:11.127Z,91740.16
2022-11-30T06:14:37.888Z,91745.75
2022-11-30T06:17:04.707Z,91744.28
2022-11-30T06:19:31.229Z,91741.38
2022-11-30T06:21:57.660Z,91739.31
2022-11-30T06:24:24.168Z,91746.97
2022-11-30T06:26:50.611Z,91737.13
2022-11-30T06:29:17.229Z,91744.16
2022-11-30T06:31:43.737Z,91748.16
2022-11-30T06:34:10.195Z,91752.28
2022-11-30T06:36:36.700Z,91750.81
2022-11-30T06:39:04.040Z,91750.25
2022-11-30T06:41:30.554Z,91753.03
2022-11-30T06:43:57.334Z,91750.81
2022-11-30T06:46:23.992Z,91750.81
2022-11-30T06:48:50.938Z,91763.31
2022-11-30T06:51:17.756Z,91754.94
2022-11-30T06:53:45.247Z,91759.09
2022-11-30T06:56:12.295Z,91761.88
2022-11-30T06:58:39.762Z,91761.75
2022-11-30T07:01:07.783Z,91766.09
2022-11-30T07:03:34.403Z,91767.31
2022-11-30T07:06:00.868Z,91763.19
2022-11-30T07:08:27.331Z,91760.53
2022-11-30T07:10:53.770Z,91758.97
2022-11-30T07:13:20.228Z,91765.84
2022-11-30T07:15:46.755Z,91777.00
2022-11-30T07:18:13.255Z,91770.69
2022-11-30T07:20:40.169Z,91767.19
2022-11-30T07:23:25.720Z,91765.13
2022-11-30T07:26:12.085Z,91771.44
2022-11-30T07:28:40.978Z,91762.94
2022-11-30T07:31:21.242Z,91767.31
2022-11-30T07:33:49.361Z,91768.53
2022-11-30T07:36:17.842Z,91771.31
2022-11-30T07:38:45.657Z,91767.06
2022-11-30T07:41:12.216Z,91765.59
2022-11-30T07:43:39.114Z,91767.06
2022-11-30T07:46:05.851Z,91778.22
2022-11-30T07:48:33.938Z,91771.44
2022-11-30T07:51:12.045Z,91775.56
2022-11-30T07:53:38.486Z,91762.94
2022-11-30T07:56:07.252Z,91771.44
2022-11-30T07:58:34.227Z,91769.25
2022-11-30T08:01:18.733Z,91772.78
2022-11-30T08:03:47.420Z,91770.69
2022-11-30T08:06:16.531Z,91765.84
2022-11-30T08:08:44.696Z,91764.41
2022-11-30T08:11:13.621Z,91770.69
2022-11-30T08:13:40.443Z,91774.34
2022-11-30T08:16:15.474Z,91771.44
2022-11-30T08:18:42.811Z,91778.47
2022-11-30T08:21:11.935Z,91772.91
2022-11-30T08:23:43.666Z,91771.69
2022-11-30T08:26:10.096Z,91775.81
2022-11-30T08:28:37.017Z,91775.81
2022-11-30T08:31:07.160Z,91772.44
2022-11-30T08:33:35.115Z,91763.44
2022-11-30T08:36:08.944Z,91777.41
2022-11-30T08:38:36.648Z,91773.88
2022-11-30T08:41:04.680Z,91773.88
2022-11-30T08:43:31.703Z,91775.81
2022-11-30T08:45:58.255Z,91778.72
2022-11-30T08:48:24.765Z,91771.69
2022-11-30T08:50:51.244Z,91782.84
2022-11-30T08:53:17.690Z,91788.41
2022-11-30T08:55:55.101Z,91788.69
2022-11-30T08:58:21.573Z,91791.47
2022-11-30T09:00:48.063Z,91791.34
2022-11-30T09:03:14.513Z,91801.75
2022-11-30T09:05:41.023Z,91804.69
2022-11-30T09:08:07.529Z,91805.16
2022-11-30T09:10:33.999Z,91799.59
2022-11-30T09:13:00.500Z,91799.59
2022-11-30T09:15:26.965Z,91802.50
2022-11-30T09:17:54.056Z,91804.69
2022-11-30T09:20:20.674Z,91803.34
2022-11-30T09:22:47.111Z,91799.09
2022-11-30T09:25:13.557Z,91805.63
2022-11-30T09:27:39.995Z,91801.28
2022-11-30T09:30:07.424Z,91803.47
2022-11-30T09:32:33.838Z,91798.88
2022-11-30T09:35:00.274Z,91794.38
2022-11-30T09:37:26.724Z,91801.28
2022-11-30T09:39:53.168Z,91799.84
2022-11-30T09:42:44.009Z,91799.84
2022-11-30T09:45:20.939Z,91791.34
2022-11-30T09:47:50.445Z,91796.91
2022-11-30T09:50:21.404Z,91796.78
2022-11-30T09:52:55.175Z,91794.13
2022-11-30T09:55:30.278Z,91792.66
2022-11-30T09:58:01.476Z,91796.91
2022-11-30T10:00:28.067Z,91793.53
2022-11-30T10:02:57.586Z,91796.31
2022-11-30T10:05:46.881Z,91785.75
2022-11-30T10:08:50.445Z,91786.72
2022-11-30T10:11:35.114Z,91780.31
2022-11-30T10:14:12.053Z,91780.19
2022-11-30T10:17:00.463Z,91783.09
2022-11-30T10:20:00.891Z,91786.00
2022-11-30T10:22:36.438Z,91781.00
2022-11-30T10:25:13.881Z,91779.56
2022-11-30T10:27:49.798Z,91774.59
2022-11-30T10:30:22.343Z,91774.59
2022-11-30T10:32:56.117Z,91770.47
2022-11-30T10:35:42.975Z,91769.03
2022-11-30T10:38:36.896Z,91767.69
2022-11-30T10:41:16.273Z,91766.22
2022-11-30T10:44:08.643Z,91757.88
2022-11-30T10:46:38.649Z,91758.47
2022-11-30T10:49:10.691Z,91752.28
2022-11-30T10:51:41.022Z,91752.41
2022-11-30T10:54:15.985Z,91749.63
2022-11-30T10:56:42.694Z,91749.63
2022-11-30T10:59:26.016Z,91744.75
2022-11-30T11:01:53.486Z,91744.28
2022-11-30T11:04:25.654Z,91744.03
2022-11-30T11:07:07.837Z,91742.56
2022-11-30T11:09:42.273Z,91749.50
2022-11-30T11:12:21.701Z,91735.56
2022-11-30T11:14:48.200Z,91738.97
2022-11-30T11:17:17.596Z,91731.28
2022-11-30T11:19:46.586Z,91727.06
2022-11-30T11:22:20.504Z,91732.75
2022-11-30T11:24:49.003Z,91728.50
2022-11-30T11:27:31.548Z,91732.75
2022-11-30T11:30:04.187Z,91728.50
2022-11-30T11:32:31.089Z,91730.72
2022-11-30T11:34:58.473Z,91727.19
2022-11-30T11:37:33.704Z,91727.94
2022-11-30T11:40:00.250Z,91739.91
2022-11-30T11:42:33.809Z,91733.59
2022-11-30T11:45:02.517Z,91729.38
2022-11-30T11:47:37.440Z,91731.66
2022-11-30T11:50:07.787Z,91725.13
2022-11-30T11:52:34.336Z,91728.75
2022-11-30T11:55:05.544Z,91730.09
2022-11-30T11:57:58.842Z,91727.31
2022-11-30T12:00:26.015Z,91731.41
2022-11-30T12:03:08.589Z,91725.13
2022-11-30T12:05:44.334Z,91727.94
2022-11-30T12:08:23.919Z,91724.41
2022-11-30T12:10:55.577Z,91723.06
2022-11-30T12:13:25.047Z,91720.25
2022-11-30T12:16:07.997Z,91727.31
2022-11-30T12:18:59.138Z,91725.13
2022-11-30T12:22:03.638Z,91724.41
2022-11-30T12:24:38.779Z,91723.06
2022-11-30T12:27:23.963Z,91725.84
2022-11-30T12:30:12.177Z,91718.81
2022-11-30T12:33:17.552Z,91718.81
2022-11-30T12:36:08.221Z,91724.41
2022-11-30T12:38:50.643Z,91717.47
2022-11-30T12:41:30.559Z,91721.00
2022-11-30T12:44:18.759Z,91723.19
2022-11-30T12:46:58.747Z,91723.31
2022-11-30T12:49:34.128Z,91714.81
2022-11-30T12:52:28.038Z,91711.28
2022-11-30T12:55:08.286Z,91714.19
2022-11-30T12:57:42.934Z,91714.81
2022-11-30T13:00:15.328Z,91712.03
2022-11-30T13:02:57.034Z,91711.53
2022-11-30T13:05:50.468Z,91712.25
2022-11-30T13:08:46.404Z,91703.78
2022-11-30T13:11:18.883Z,91703.78
2022-11-30T13:13:56.060Z,91698.94
2022-11-30T13:16:24.728Z,91700.97
2022-11-30T13:18:58.723Z,91694.06
2022-11-30T13:21:57.901Z,91694.06
2022-11-30T13:24:29.234Z,91696.84
2022-11-30T13:27:13.468Z,91693.34
2022-11-30T13:29:59.306Z,91699.88
2022-11-30T13:32:56.646Z,91692.13
2022-11-30T13:35:27.931Z,91694.78
2022-11-30T13:38:35.292Z,91698.94
2022-11-30T13:41:05.055Z,91703.16
2022-11-30T13:43:48.386Z,91700.97
2022-11-30T13:46:16.879Z,91696.84
2022-11-30T13:48:44.832Z,91698.19
2022-11-30T13:51:12.628Z,91696.75
2022-11-30T13:53:39.996Z,91694.06
2022-11-30T13:56:18.595Z,91689.81
2022-11-30T13:59:23.278Z,91684.38
2022-11-30T14:02:13.485Z,91700.38
2022-11-30T14:04:47.648Z,91709.34
2022-11-30T14:07:35.171Z,91702.44
2022-11-30T14:10:01.671Z,91699.63
2022-11-30T14:12:31.495Z,91701.59
2022-11-30T14:14:59.279Z,91702.34
2022-11-30T14:17:33.534Z,91708.13
2022-11-30T14:20:10.105Z,91705.22
2022-11-30T14:22:40.308Z,91701.09
2022-11-30T14:25:14.972Z,91698.19
2022-11-30T14:27:43.747Z,91705.13
2022-11-30T14:30:18.306Z,91698.94
2022-11-30T14:32:51.626Z,91702.34
2022-11-30T14:35:20.014Z,91710.69
2022-11-30T14:37:54.136Z,91703.78
2022-11-30T14:40:23.017Z,91704.50
2022-11-30T14:42:52.959Z,91701.59
2022-11-30T14:45:28.316Z,91699.53
2022-11-30T14:48:15.204Z,91706.56
2022-11-30T14:50:50.062Z,91696.75
2022-11-30T14:53:31.591Z,91712.38
2022-11-30T14:56:30.559Z,91712.25
2022-11-30T14:59:42.029Z,91719.41
2022-11-30T15:02:19.025Z,91713.97
2022-11-30T15:04:47.810Z,91719.53
2022-11-30T15:07:16.284Z,91717.34
2022-11-30T15:09:46.692Z,91719.53
2022-11-30T15:12:22.534Z,91728.03
2022-11-30T15:15:02.229Z,91725.13
2022-11-30T15:17:28.892Z,91724.38
2022-11-30T15:19:55.330Z,91729.97
2022-11-30T15:22:23.201Z,91725.84
2022-11-30T15:24:50.260Z,91728.63
2022-11-30T15:27:22.564Z,91720.75
2022-11-30T15:30:00.962Z,91727.03
2022-11-30T15:32:29.055Z,91727.78
2022-11-30T15:35:00.926Z,91728.38
2022-11-30T15:37:33.078Z,91731.91
2022-11-30T15:40:02.895Z,91734.59
2022-11-30T15:42:39.737Z,91731.91
2022-11-30T15:45:30.071Z,91737.38
2022-11-30T15:47:58.822Z,91734.47
2022-11-30T15:50:31.181Z,91742.94
2022-11-30T15:52:59.967Z,91737.50
2022-11-30T15:55:42.040Z,91740.16
2022-11-30T15:58:37.067Z,91738.69
2022-11-30T16:01:05.583Z,91733.13
2022-11-30T16:03:53.113Z,91730.94
2022-11-30T16:06:20.258Z,91733.84
2022-11-30T16:08:47.916Z,91736.03
2022-11-30T16:11:14.462Z,91733.84
2022-11-30T16:13:41.022Z,91740.91
2022-11-30T16:16:19.652Z,91742.81
2022-11-30T16:18:46.377Z,91740.16
2022-11-30T16:21:16.897Z,91738.69
2022-11-30T16:23:43.443Z,91745.63
2022-11-30T16:26:28.918Z,91751.31
2022-11-30T16:28:59.154Z,91746.97
2022-11-30T16:31:25.719Z,91746.22
2022-11-30T16:33:52.360Z,91744.16
2022-11-30T16:36:21.323Z,91744.28
2022-11-30T16:38:49.536Z,91747.78
2022-11-30T16:41:24.620Z,91751.31
2022-11-30T16:43:53.812Z,91753.97
2022-11-30T16:46:23.623Z,91747.78
2022-11-30T16:48:50.232Z,91749.84
2022-11-30T16:51:27.278Z,91752.63
2022-11-30T16:53:54.340Z,91753.97
2022-11-30T16:56:21.104Z,91755.44
2022-11-30T16:58:48.011Z,91758.34
2022-11-30T17:01:19.000Z,91753.97
2022-11-30T17:03:48.532Z,91756.78
2022-11-30T17:06:21.828Z,91769.28
2022-11-30T17:08:49.567Z,91762.34
2022-11-30T17:11:29.490Z,91766.50
2022-11-30T17:13:56.504Z,91779.09
2022-11-30T17:16:23.241Z,91773.63
2022-11-30T17:18:49.806Z,91772.16
2022-11-30T17:21:19.567Z,91779.69
2022-11-30T17:23:46.052Z,91772.16
2022-11-30T17:26:13.322Z,91776.44
2022-11-30T17:28:41.596Z,91775.81
2022-11-30T17:31:10.275Z,91783.31
2022-11-30T17:33:37.691Z,91781.28
2022-11-30T17:36:06.997Z,91777.75
2022-11-30T17:38:35.026Z,91782.75
2022-11-30T17:41:18.596Z,91785.75
2022-11-30T17:43:45.948Z,91789.16
2022-11-30T17:46:15.828Z,91791.22
2022-11-30T17:48:43.662Z,91790.50
2022-11-30T17:51:11.192Z,91789.75
2022-11-30T17:53:38.596Z,91789.75
2022-11-30T17:56:10.456Z,91789.63
2022-11-30T17:58:43.860Z,91799.56
2022-11-30T18:01:22.602Z,91798.88
2022-11-30T18:03:49.470Z,91801.53
2022-11-30T18:06:16.730Z,91792.56
2022-11-30T18:08:43.424Z,91793.28
2022-11-30T18:11:20.138Z,91798.88
2022-11-30T18:13:48.267Z,91801.66
2022-11-30T18:16:20.372Z,91806.50
2022-11-30T18:18:48.437Z,91808.69
2022-11-30T18:21:18.013Z,91804.44
2022-11-30T18:23:44.970Z,91802.97
2022-11-30T18:26:13.700Z,91800.78
2022-11-30T18:28:40.520Z,91805.16
2022-11-30T18:31:07.310Z,91803.22
2022-11-30T18:33:35.099Z,91799.69
2022-11-30T18:36:02.438Z,91805.16
2022-11-30T18:38:34.172Z,91804.44
2022-11-30T18:41:04.379Z,91810.03
2022-11-30T18:43:31.721Z,91812.69
2022-11-30T18:46:24.908Z,91809.28
2022-11-30T18:48:52.787Z,91812.81
2022-11-30T18:51:27.377Z,91816.31
2022-11-30T18:53:59.382Z,91815.59
2022-11-30T18:56:28.443Z,91817.06
2022-11-30T18:58:57.172Z,91811.47
2022-11-30T19:01:24.717Z,91819.84
2022-11-30T19:03:56.905Z,91816.56
2022-11-30T19:06:32.069Z,91822.16
2022-11-30T19:09:00.943Z,91817.31
2022-11-30T19:11:27.832Z,91815.84
2022-11-30T19:13:56.243Z,91825.09
2022-11-30T19:16:24.578Z,91816.00
2022-11-30T19:18:52.047Z,91825.81
2022-11-30T19:21:20.079Z,91816.13
2022-11-30T19:23:47.365Z,91821.69
2022-11-30T19:26:14.699Z,91820.25
2022-11-30T19:28:42.884Z,91819.03
2022-11-30T19:31:19.673Z,91827.28
2022-11-30T19:33:52.035Z,91825.81
2022-11-30T19:36:25.074Z,91831.41
2022-11-30T19:38:51.685Z,91828.63
2022-11-30T19:41:20.068Z,91836.50
2022-11-30T19:43:54.713Z,91830.19
2022-11-30T19:46:22.461Z,91827.28
2022-11-30T19:48:48.972Z,91828.75
2022-11-30T19:51:18.518Z,91832.84
2022-11-30T19:53:45.657Z,91834.94
2022-11-30T19:56:15.640Z,91827.28
2022-11-30T19:58:43.959Z,91828.75
2022-11-30T20:01:14.465Z,91832.16
2022-11-30T20:03:41.105Z,91828.63
2022-11-30T20:06:07.783Z,91832.84
2022-11-30T20:08:34.258Z,91835.53
2022-11-30T20:11:00.719Z,91838.31
2022-11-30T20:13:30.235Z,91837.00
2022-11-30T20:15:56.784Z,91844.00
2022-11-30T20:18:23.348Z,91838.44
2022-11-30T20:20:50.596Z,91841.09
2022-11-30T20:23:17.070Z,91832.16
2022-11-30T20:25:43.561Z,91831.41
2022-11-30T20:28:12.658Z,91832.16
2022-11-30T20:30:39.531Z,91834.31
2022-11-30T20:33:06.043Z,91827.28
2022-11-30T20:35:32.490Z,91832.84
2022-11-30T20:37:58.946Z,91834.31
2022-11-30T20:40:25.399Z,91827.28
2022-11-30T20:42:52.654Z,91840.63
2022-11-30T20:45:19.163Z,91837.25
2022-11-30T20:47:45.606Z,91830.94
2022-11-30T20:50:12.077Z,91837.25
2022-11-30T20:52:38.535Z,91837.25
2022-11-30T20:55:05.303Z,91837.94
2022-11-30T20:57:31.759Z,91836.03
2022-11-30T20:59:58.213Z,91838.69
2022-11-30T21:02:26.125Z,91841.47
2022-11-30T21:04:52.760Z,91840.75
2022-11-30T21:07:19.268Z,91846.94
2022-11-30T21:09:45.750Z,91842.81
2022-11-30T21:12:12.206Z,91845.50
2022-11-30T21:14:38.718Z,91847.53
2022-11-30T21:17:05.158Z,91852.50
2022-11-30T21:19:31.644Z,91855.31
2022-11-30T21:21:59.257Z,91849.13
2022-11-30T21:24:25.714Z,91848.50
2022-11-30T21:26:52.658Z,91854.22
2022-11-30T21:29:19.450Z,91856.78
2022-11-30T21:31:46.404Z,91862.44
2022-11-30T21:34:13.242Z,91854.00
2022-11-30T21:36:39.784Z,91862.44
2022-11-30T21:39:07.510Z,91854.00
2022-11-30T21:41:36.406Z,91865.84
2022-11-30T21:44:03.964Z,91861.00
2022-11-30T21:46:30.905Z,91862.22
2022-11-30T21:48:57.916Z,91869.84
2022-11-30T21:51:27.130Z,91860.88
2022-11-30T21:53:56.362Z,91865.63
2022-11-30T21:56:31.623Z,91863.66
2022-11-30T21:58:58.904Z,91870.72
2022-11-30T22:01:31.228Z,91862.44
2022-11-30T22:04:00.149Z,91866.59
2022-11-30T22:06:28.751Z,91865.25
2022-11-30T22:09:03.679Z,91855.44
2022-11-30T22:11:30.835Z,91862.22
2022-11-30T22:13:57.282Z,91858.09
2022-11-30T22:16:27.833Z,91862.22
2022-11-30T22:18:57.859Z,91866.06
2022-11-30T22:21:26.943Z,91860.47
2022-11-30T22:23:55.779Z,91864.88
2022-11-30T22:26:33.777Z,91862.09
2022-11-30T22:29:09.643Z,91861.94
2022-11-30T22:31:38.764Z,91862.69
2022-11-30T22:34:05.693Z,91864.59
2022-11-30T22:36:34.109Z,91868.75
2022-11-30T22:39:03.824Z,91869.44
2022-11-30T22:41:30.627Z,91866.06
2022-11-30T22:43:57.936Z,91869.22
2022-11-30T22:46:30.637Z,91869.22
2022-11-30T22:49:05.560Z,91870.53
2022-11-30T22:51:34.228Z,91867.88
2022-11-30T22:54:01.951Z,91872.84
2022-11-30T22:56:31.019Z,91871.88
2022-11-30T22:58:59.979Z,91872.59
2022-11-30T23:01:28.088Z,91875.97
2022-11-30T23:03:56.611Z,91875.97
2022-11-30T23:06:24.494Z,91870.19
2022-11-30T23:08:52.421Z,91872.97
2022-11-30T23:11:23.987Z,91875.00
2022-11-30T23:13:50.571Z,91867.97
2022-11-30T23:16:18.217Z,91870.66
2022-11-30T23:18:51.248Z,91867.72
2022-11-30T23:21:20.140Z,91874.03
2022-11-30T23:23:47.411Z,91867.00
2022-11-30T23:26:22.726Z,91859.25
2022-11-30T23:28:51.005Z,91857.28
2022-11-30T23:31:34.337Z,91852.31
2022-11-30T23:34:10.252Z,91859.25
2022-11-30T23:36:37.353Z,91859.25
2022-11-30T23:39:10.954Z,91865.44
2022-11-30T23:41:37.783Z,91857.91
2022-11-30T23:44:04.827Z,91857.91
2022-11-30T23:46:31.425Z,91854.97
2022-11-30T23:48:57.947Z,91854.84
2022-11-30T23:51:25.227Z,91863.34
2022-11-30T23:53:51.915Z,91850.75
2022-11-30T23:56:19.915Z,91850.75
2022-11-30T23:58:47.465Z,91860.44
